LPPS/PXO METAR and TAF weather

Enter ICAO airport designator
Station Type Date Time Source
LPPS METAR 2020/04/06 10:00 UTC NOAA

LPPS 061000Z 17005KT 9999 FEW015 21/18 Q1020


Station Type Date Time Source
LPPS Decoded METAR 2020/04/06 10:00 UTC NOAA

Porto Santo, Portugal (LPPS) 33-04N 016-21W 82M
Apr 06, 2020 - 06:00 AM EDT / 2020.04.06 1000 UTC
Wind: from the S (170 degrees) at 6 MPH (5 KT):0
Visibility: greater than 7 mile(s):0
Sky conditions: mostly clear
Temperature: 69 F (21 C)
Dew Point: 64 F (18 C)
Relative Humidity: 82%
Pressure (altimeter): 30.12 in. Hg (1020 hPa)
ob: LPPS 061000Z 17005KT 9999 FEW015 21/18 Q1020
cycle: 10

Station Type Date Time Source
LPPS TAF 2020/04/06 06:18 UTC NOAA

TAF LPPS 060500Z 0606/0712 VRB05KT 9999 SCT015
TEMPO 0606/0612 SCT012 BKN030
BECMG 0609/0611 21013KT
BECMG 0619/0621 VRB05KT
TEMPO 0621/0708 SCT012 BKN030

Example: see airport list